sensor_id;sensor_type;location;lat;lon;timestamp;pressure;altitude;pressure_sealevel;temperature;humidity
26823;BME280;14852;51.910;8.878;2022-10-24T00:00:43;98977.41;;;17.97;64.63
26823;BME280;14852;51.910;8.878;2022-10-24T00:03:11;98976.03;;;17.93;64.59
26823;BME280;14852;51.910;8.878;2022-10-24T00:05:45;98966.97;;;17.88;64.38
26823;BME280;14852;51.910;8.878;2022-10-24T00:08:11;98978.88;;;17.82;64.81
26823;BME280;14852;51.910;8.878;2022-10-24T00:10:42;98972.78;;;17.82;64.94
26823;BME280;14852;51.910;8.878;2022-10-24T00:13:09;98977.19;;;17.81;64.75
26823;BME280;14852;51.910;8.878;2022-10-24T00:15:34;98979.97;;;17.80;64.80
26823;BME280;14852;51.910;8.878;2022-10-24T00:18:00;98982.47;;;17.81;64.48
26823;BME280;14852;51.910;8.878;2022-10-24T00:20:26;98986.88;;;17.81;64.54
26823;BME280;14852;51.910;8.878;2022-10-24T00:22:52;98986.19;;;17.79;64.48
26823;BME280;14852;51.910;8.878;2022-10-24T00:25:18;98981.91;;;17.78;64.42
26823;BME280;14852;51.910;8.878;2022-10-24T00:27:43;98977.94;;;17.73;64.33
26823;BME280;14852;51.910;8.878;2022-10-24T00:30:10;98983.34;;;17.72;64.57
26823;BME280;14852;51.910;8.878;2022-10-24T00:32:36;98979.06;;;17.71;65.01
26823;BME280;14852;51.910;8.878;2022-10-24T00:35:02;98985.28;;;17.70;64.83
26823;BME280;14852;51.910;8.878;2022-10-24T00:37:28;98987.22;;;17.68;64.91
26823;BME280;14852;51.910;8.878;2022-10-24T00:39:54;98986.38;;;17.67;64.58
26823;BME280;14852;51.910;8.878;2022-10-24T00:42:20;98989.84;;;17.68;65.09
26823;BME280;14852;51.910;8.878;2022-10-24T00:44:50;98980.16;;;17.68;64.76
26823;BME280;14852;51.910;8.878;2022-10-24T00:47:23;98972.28;;;17.68;65.01
26823;BME280;14852;51.910;8.878;2022-10-24T00:50:15;98978.75;;;17.74;64.84
26823;BME280;14852;51.910;8.878;2022-10-24T00:52:45;98975.44;;;17.72;64.73
26823;BME280;14852;51.910;8.878;2022-10-24T00:55:12;98970.19;;;17.72;64.72
26823;BME280;14852;51.910;8.878;2022-10-24T00:57:51;98974.19;;;17.76;64.83
26823;BME280;14852;51.910;8.878;2022-10-24T01:00:31;98965.31;;;17.77;64.47
26823;BME280;14852;51.910;8.878;2022-10-24T01:02:57;98955.94;;;17.75;64.52
26823;BME280;14852;51.910;8.878;2022-10-24T01:05:27;98961.88;;;17.77;64.60
26823;BME280;14852;51.910;8.878;2022-10-24T01:08:24;98961.72;;;17.78;64.57
26823;BME280;14852;51.910;8.878;2022-10-24T01:11:29;98960.88;;;17.78;64.66
26823;BME280;14852;51.910;8.878;2022-10-24T01:16:48;98970.56;;;17.77;64.05
26823;BME280;14852;51.910;8.878;2022-10-24T01:22:23;98949.41;;;17.79;64.11
26823;BME280;14852;51.910;8.878;2022-10-24T01:25:14;98944.16;;;17.79;64.10
26823;BME280;14852;51.910;8.878;2022-10-24T01:28:05;98950.38;;;17.78;64.17
26823;BME280;14852;51.910;8.878;2022-10-24T01:30:47;98950.69;;;17.75;64.31
26823;BME280;14852;51.910;8.878;2022-10-24T01:33:34;98950.56;;;17.76;64.72
26823;BME280;14852;51.910;8.878;2022-10-24T01:36:52;98936.97;;;17.81;64.37
26823;BME280;14852;51.910;8.878;2022-10-24T01:39:23;98937.09;;;17.79;63.93
26823;BME280;14852;51.910;8.878;2022-10-24T01:41:53;98926.44;;;17.81;64.49
26823;BME280;14852;51.910;8.878;2022-10-24T01:44:26;98922.72;;;17.83;64.11
26823;BME280;14852;51.910;8.878;2022-10-24T01:47:02;98899.06;;;17.83;64.07
26823;BME280;14852;51.910;8.878;2022-10-24T01:49:35;98910.53;;;17.82;64.31
26823;BME280;14852;51.910;8.878;2022-10-24T01:52:07;98913.72;;;17.86;63.99
26823;BME280;14852;51.910;8.878;2022-10-24T01:54:35;98910.94;;;17.87;63.82
26823;BME280;14852;51.910;8.878;2022-10-24T02:00:51;98915.06;;;17.90;64.00
26823;BME280;14852;51.910;8.878;2022-10-24T02:03:33;98912.97;;;17.93;63.73
26823;BME280;14852;51.910;8.878;2022-10-24T02:06:27;98913.66;;;17.95;63.90
26823;BME280;14852;51.910;8.878;2022-10-24T02:08:56;98911.84;;;17.96;63.77
26823;BME280;14852;51.910;8.878;2022-10-24T02:11:23;98913.50;;;17.97;63.56
26823;BME280;14852;51.910;8.878;2022-10-24T02:14:02;98902.53;;;18.01;63.14
26823;BME280;14852;51.910;8.878;2022-10-24T02:16:30;98906.81;;;18.02;63.53
26823;BME280;14852;51.910;8.878;2022-10-24T02:18:57;98896.84;;;18.06;63.26
26823;BME280;14852;51.910;8.878;2022-10-24T02:24:52;98888.19;;;18.14;62.70
26823;BME280;14852;51.910;8.878;2022-10-24T02:27:32;98882.94;;;18.14;62.77
26823;BME280;14852;51.910;8.878;2022-10-24T02:30:11;98882.66;;;18.17;62.53
26823;BME280;14852;51.910;8.878;2022-10-24T02:32:45;98876.56;;;18.16;62.55
26823;BME280;14852;51.910;8.878;2022-10-24T02:35:15;98878.06;;;18.19;62.47
26823;BME280;14852;51.910;8.878;2022-10-24T02:37:47;98872.81;;;18.19;62.62
26823;BME280;14852;51.910;8.878;2022-10-24T02:40:16;98873.78;;;18.18;62.56
26823;BME280;14852;51.910;8.878;2022-10-24T02:42:45;98867.69;;;18.17;62.00
26823;BME280;14852;51.910;8.878;2022-10-24T02:45:14;98860.94;;;18.15;62.31
26823;BME280;14852;51.910;8.878;2022-10-24T02:47:42;98857.47;;;18.14;61.96
26823;BME280;14852;51.910;8.878;2022-10-24T02:50:09;98857.34;;;18.16;62.07
26823;BME280;14852;51.910;8.878;2022-10-24T02:52:40;98860.66;;;18.18;62.20
26823;BME280;14852;51.910;8.878;2022-10-24T02:55:06;98859.81;;;18.17;61.68
26823;BME280;14852;51.910;8.878;2022-10-24T02:57:32;98848.47;;;18.17;62.08
26823;BME280;14852;51.910;8.878;2022-10-24T02:59:58;98864.25;;;18.17;61.81
26823;BME280;14852;51.910;8.878;2022-10-24T03:02:24;98859.44;;;18.12;62.02
26823;BME280;14852;51.910;8.878;2022-10-24T03:04:50;98856.16;;;18.10;62.07
26823;BME280;14852;51.910;8.878;2022-10-24T03:07:15;98854.50;;;18.09;62.09
26823;BME280;14852;51.910;8.878;2022-10-24T03:09:41;98856.81;;;18.12;61.65
26823;BME280;14852;51.910;8.878;2022-10-24T03:12:08;98856.66;;;18.14;61.66
26823;BME280;14852;51.910;8.878;2022-10-24T03:14:35;98854.56;;;18.17;61.45
26823;BME280;14852;51.910;8.878;2022-10-24T03:17:01;98861.47;;;18.18;61.22
26823;BME280;14852;51.910;8.878;2022-10-24T03:19:27;98866.44;;;18.21;61.61
26823;BME280;14852;51.910;8.878;2022-10-24T03:21:53;98855.44;;;18.26;61.25
26823;BME280;14852;51.910;8.878;2022-10-24T03:24:18;98859.78;;;18.35;60.97
26823;BME280;14852;51.910;8.878;2022-10-24T03:26:44;98862.13;;;18.38;61.19
26823;BME280;14852;51.910;8.878;2022-10-24T03:29:10;98867.25;;;18.39;61.09
26823;BME280;14852;51.910;8.878;2022-10-24T03:31:39;98877.78;;;18.39;61.08
26823;BME280;14852;51.910;8.878;2022-10-24T03:34:05;98871.16;;;18.35;61.30
26823;BME280;14852;51.910;8.878;2022-10-24T03:36:31;98862.59;;;18.33;61.33
26823;BME280;14852;51.910;8.878;2022-10-24T03:38:57;98866.56;;;18.37;60.94
26823;BME280;14852;51.910;8.878;2022-10-24T03:41:23;98867.25;;;18.39;60.58
26823;BME280;14852;51.910;8.878;2022-10-24T03:43:49;98867.63;;;18.44;60.92
26823;BME280;14852;51.910;8.878;2022-10-24T03:46:14;98855.97;;;18.47;60.90
26823;BME280;14852;51.910;8.878;2022-10-24T03:48:40;98857.63;;;18.48;60.98
26823;BME280;14852;51.910;8.878;2022-10-24T03:51:06;98861.22;;;18.47;60.98
26823;BME280;14852;51.910;8.878;2022-10-24T03:53:32;98862.38;;;18.44;61.02
26823;BME280;14852;51.910;8.878;2022-10-24T03:55:57;98860.72;;;18.43;60.55
26823;BME280;14852;51.910;8.878;2022-10-24T03:58:25;98849.53;;;18.41;60.90
26823;BME280;14852;51.910;8.878;2022-10-24T04:00:51;98858.78;;;18.45;60.79
26823;BME280;14852;51.910;8.878;2022-10-24T04:03:17;98844.31;;;18.50;60.78
26823;BME280;14852;51.910;8.878;2022-10-24T04:05:43;98846.66;;;18.53;60.29
26823;BME280;14852;51.910;8.878;2022-10-24T04:08:09;98848.44;;;18.52;60.67
26823;BME280;14852;51.910;8.878;2022-10-24T04:10:35;98843.19;;;18.52;60.35
26823;BME280;14852;51.910;8.878;2022-10-24T04:13:00;98844.16;;;18.51;60.52
26823;BME280;14852;51.910;8.878;2022-10-24T04:15:26;98839.59;;;18.53;60.33
26823;BME280;14852;51.910;8.878;2022-10-24T04:17:52;98845.00;;;18.52;60.41
26823;BME280;14852;51.910;8.878;2022-10-24T04:20:18;98844.00;;;18.53;60.28
26823;BME280;14852;51.910;8.878;2022-10-24T04:22:47;98848.31;;;18.54;60.05
26823;BME280;14852;51.910;8.878;2022-10-24T04:25:13;98857.03;;;18.54;60.26
26823;BME280;14852;51.910;8.878;2022-10-24T04:27:39;98848.31;;;18.54;60.32
26823;BME280;14852;51.910;8.878;2022-10-24T04:30:10;98851.59;;;18.56;60.09
26823;BME280;14852;51.910;8.878;2022-10-24T04:32:37;98849.13;;;18.54;60.30
26823;BME280;14852;51.910;8.878;2022-10-24T04:35:04;98845.22;;;18.58;60.18
26823;BME280;14852;51.910;8.878;2022-10-24T04:37:30;98848.53;;;18.60;60.05
26823;BME280;14852;51.910;8.878;2022-10-24T04:39:56;98849.38;;;18.61;59.90
26823;BME280;14852;51.910;8.878;2022-10-24T04:42:23;98842.81;;;18.65;59.56
26823;BME280;14852;51.910;8.878;2022-10-24T04:44:49;98835.75;;;18.65;59.98
26823;BME280;14852;51.910;8.878;2022-10-24T04:47:16;98837.25;;;18.68;59.96
26823;BME280;14852;51.910;8.878;2022-10-24T04:49:42;98833.31;;;18.72;59.71
26823;BME280;14852;51.910;8.878;2022-10-24T04:52:08;98839.41;;;18.72;59.36
26823;BME280;14852;51.910;8.878;2022-10-24T04:54:34;98836.63;;;18.74;59.50
26823;BME280;14852;51.910;8.878;2022-10-24T04:56:59;98839.41;;;18.72;59.52
26823;BME280;14852;51.910;8.878;2022-10-24T04:59:25;98835.13;;;18.71;59.77
26823;BME280;14852;51.910;8.878;2022-10-24T05:01:51;98828.88;;;18.72;59.50
26823;BME280;14852;51.910;8.878;2022-10-24T05:04:20;98833.31;;;18.72;59.84
26823;BME280;14852;51.910;8.878;2022-10-24T05:06:46;98839.72;;;18.69;60.11
26823;BME280;14852;51.910;8.878;2022-10-24T05:09:13;98840.88;;;18.67;59.60
26823;BME280;14852;51.910;8.878;2022-10-24T05:11:39;98841.03;;;18.65;60.18
26823;BME280;14852;51.910;8.878;2022-10-24T05:14:05;98844.47;;;18.66;59.82
26823;BME280;14852;51.910;8.878;2022-10-24T05:16:31;98837.56;;;18.65;59.77
26823;BME280;14852;51.910;8.878;2022-10-24T05:18:57;98836.44;;;18.67;59.52
26823;BME280;14852;51.910;8.878;2022-10-24T05:21:22;98843.50;;;18.67;59.80
26823;BME280;14852;51.910;8.878;2022-10-24T05:23:48;98836.28;;;18.69;59.86
26823;BME280;14852;51.910;8.878;2022-10-24T05:26:14;98840.88;;;18.67;59.72
26823;BME280;14852;51.910;8.878;2022-10-24T05:28:40;98841.03;;;18.65;59.98
26823;BME280;14852;51.910;8.878;2022-10-24T05:31:06;98835.91;;;18.64;59.46
26823;BME280;14852;51.910;8.878;2022-10-24T05:33:31;98837.56;;;18.65;59.90
26823;BME280;14852;51.910;8.878;2022-10-24T05:35:57;98836.59;;;18.66;59.49
26823;BME280;14852;51.910;8.878;2022-10-24T05:38:23;98840.03;;;18.66;59.66
26823;BME280;14852;51.910;8.878;2022-10-24T05:40:49;98832.16;;;18.66;59.52
26823;BME280;14852;51.910;8.878;2022-10-24T05:43:16;98815.38;;;18.67;59.42
26823;BME280;14852;51.910;8.878;2022-10-24T05:45:42;98820.66;;;18.67;59.80
26823;BME280;14852;51.910;8.878;2022-10-24T05:48:08;98822.31;;;18.68;59.33
26823;BME280;14852;51.910;8.878;2022-10-24T05:50:34;98823.78;;;18.71;59.47
26823;BME280;14852;51.910;8.878;2022-10-24T05:53:02;98822.81;;;18.72;59.32
26823;BME280;14852;51.910;8.878;2022-10-24T05:55:28;98823.78;;;18.71;59.35
26823;BME280;14852;51.910;8.878;2022-10-24T05:57:55;98824.25;;;18.66;59.52
26823;BME280;14852;51.910;8.878;2022-10-24T06:00:21;98819.97;;;18.65;59.52
26823;BME280;14852;51.910;8.878;2022-10-24T06:02:47;98826.88;;;18.66;58.93
26823;BME280;14852;51.910;8.878;2022-10-24T06:05:14;98839.91;;;18.68;59.05
26823;BME280;14852;51.910;8.878;2022-10-24T06:07:39;98830.84;;;18.70;58.86
26823;BME280;14852;51.910;8.878;2022-10-24T06:10:07;98826.41;;;18.71;59.22
26823;BME280;14852;51.910;8.878;2022-10-24T06:12:34;98838.75;;;18.70;58.71
26823;BME280;14852;51.910;8.878;2022-10-24T06:15:02;98837.91;;;18.70;58.75
26823;BME280;14852;51.910;8.878;2022-10-24T06:17:29;98836.09;;;18.70;58.72
26823;BME280;14852;51.910;8.878;2022-10-24T06:19:55;98846.47;;;18.72;58.91
26823;BME280;14852;51.910;8.878;2022-10-24T06:22:21;98844.00;;;18.70;58.15
26823;BME280;14852;51.910;8.878;2022-10-24T06:24:49;98851.75;;;18.72;58.50
26823;BME280;14852;51.910;8.878;2022-10-24T06:27:15;98854.38;;;18.72;58.35
26823;BME280;14852;51.910;8.878;2022-10-24T06:29:41;98849.78;;;18.74;58.43
26823;BME280;14852;51.910;8.878;2022-10-24T06:32:07;98856.56;;;18.76;58.11
26823;BME280;14852;51.910;8.878;2022-10-24T06:34:33;98847.53;;;18.79;58.04
26823;BME280;14852;51.910;8.878;2022-10-24T06:37:00;98852.47;;;18.82;58.10
26823;BME280;14852;51.910;8.878;2022-10-24T06:39:26;98852.03;;;18.87;58.05
26823;BME280;14852;51.910;8.878;2022-10-24T06:41:52;98854.19;;;18.91;57.47
26823;BME280;14852;51.910;8.878;2022-10-24T06:44:18;98852.72;;;18.97;57.36
26823;BME280;14852;51.910;8.878;2022-10-24T06:46:44;98864.47;;;19.02;57.19
26823;BME280;14852;51.910;8.878;2022-10-24T06:49:11;98863.84;;;19.08;57.04
26823;BME280;14852;51.910;8.878;2022-10-24T06:51:38;98869.63;;;19.12;56.76
26823;BME280;14852;51.910;8.878;2022-10-24T06:54:04;98865.22;;;19.21;56.67
26823;BME280;14852;51.910;8.878;2022-10-24T06:56:30;98867.41;;;19.25;56.51
26823;BME280;14852;51.910;8.878;2022-10-24T06:58:56;98875.63;;;19.30;56.64
26823;BME280;14852;51.910;8.878;2022-10-24T07:01:24;98881.75;;;19.39;56.45
26823;BME280;14852;51.910;8.878;2022-10-24T07:03:51;98876.44;;;19.48;56.14
26823;BME280;14852;51.910;8.878;2022-10-24T07:06:24;98884.38;;;19.65;56.08
26823;BME280;14852;51.910;8.878;2022-10-24T07:08:52;98882.47;;;19.83;55.56
26823;BME280;14852;51.910;8.878;2022-10-24T07:11:19;98880.03;;;19.98;54.94
26823;BME280;14852;51.910;8.878;2022-10-24T07:13:45;98883.22;;;20.25;54.64
26823;BME280;14852;51.910;8.878;2022-10-24T07:16:11;98886.41;;;20.86;53.51
26823;BME280;14852;51.910;8.878;2022-10-24T07:18:37;98877.06;;;21.39;52.16
26823;BME280;14852;51.910;8.878;2022-10-24T07:21:07;98895.03;;;21.98;50.95
26823;BME280;14852;51.910;8.878;2022-10-24T07:23:34;98889.66;;;22.15;50.32
26823;BME280;14852;51.910;8.878;2022-10-24T07:26:07;98886.88;;;22.54;50.57
26823;BME280;14852;51.910;8.878;2022-10-24T07:28:35;98891.47;;;22.37;50.70
26823;BME280;14852;51.910;8.878;2022-10-24T07:31:01;98887.28;;;22.43;50.34
26823;BME280;14852;51.910;8.878;2022-10-24T07:33:28;98897.28;;;22.78;49.97
26823;BME280;14852;51.910;8.878;2022-10-24T07:35:54;98890.88;;;22.95;49.42
26823;BME280;14852;51.910;8.878;2022-10-24T07:38:20;98896.59;;;22.84;49.82
26823;BME280;14852;51.910;8.878;2022-10-24T07:40:46;98890.53;;;22.75;49.77
26823;BME280;14852;51.910;8.878;2022-10-24T07:43:12;98898.88;;;22.64;50.18
26823;BME280;14852;51.910;8.878;2022-10-24T07:45:39;98904.16;;;22.42;49.89
26823;BME280;14852;51.910;8.878;2022-10-24T07:48:05;98898.34;;;22.23;50.52
26823;BME280;14852;51.910;8.878;2022-10-24T07:50:33;98896.38;;;22.17;51.06
26823;BME280;14852;51.910;8.878;2022-10-24T07:52:59;98895.41;;;22.18;51.29
26823;BME280;14852;51.910;8.878;2022-10-24T07:55:25;98897.03;;;22.19;50.96
26823;BME280;14852;51.910;8.878;2022-10-24T07:57:51;98901.69;;;22.40;50.41
26823;BME280;14852;51.910;8.878;2022-10-24T08:00:17;98892.66;;;22.57;49.56
26823;BME280;14852;51.910;8.878;2022-10-24T08:02:43;98883.53;;;22.83;49.05
26823;BME280;14852;51.910;8.878;2022-10-24T08:05:10;98880.72;;;23.43;48.25
26823;BME280;14852;51.910;8.878;2022-10-24T08:07:36;98878.56;;;23.61;47.97
26823;BME280;14852;51.910;8.878;2022-10-24T08:10:04;98878.84;;;24.02;46.96
26823;BME280;14852;51.910;8.878;2022-10-24T08:12:30;98878.78;;;24.32;46.17
26823;BME280;14852;51.910;8.878;2022-10-24T08:14:56;98877.72;;;24.11;46.66
26823;BME280;14852;51.910;8.878;2022-10-24T08:17:22;98880.53;;;23.44;47.79
26823;BME280;14852;51.910;8.878;2022-10-24T08:19:49;98881.72;;;22.98;49.10
26823;BME280;14852;51.910;8.878;2022-10-24T08:22:15;98881.28;;;23.38;48.59
26823;BME280;14852;51.910;8.878;2022-10-24T08:24:42;98876.63;;;24.42;47.12
26823;BME280;14852;51.910;8.878;2022-10-24T08:27:08;98882.38;;;24.67;46.01
26823;BME280;14852;51.910;8.878;2022-10-24T08:29:35;98872.13;;;24.64;45.33
26823;BME280;14852;51.910;8.878;2022-10-24T08:32:01;98876.56;;;24.57;46.05
26823;BME280;14852;51.910;8.878;2022-10-24T08:34:27;98879.09;;;24.22;46.69
26823;BME280;14852;51.910;8.878;2022-10-24T08:36:53;98877.44;;;23.85;47.25
26823;BME280;14852;51.910;8.878;2022-10-24T08:39:19;98873.63;;;23.58;47.44
26823;BME280;14852;51.910;8.878;2022-10-24T08:41:59;98884.03;;;23.45;48.29
26823;BME280;14852;51.910;8.878;2022-10-24T08:44:33;98865.28;;;23.46;47.84
26823;BME280;14852;51.910;8.878;2022-10-24T08:47:39;98867.56;;;23.35;48.61
26823;BME280;14852;51.910;8.878;2022-10-24T08:55:49;98857.69;;;23.43;48.20
26823;BME280;14852;51.910;8.878;2022-10-24T08:58:25;98868.66;;;23.70;47.32
26823;BME280;14852;51.910;8.878;2022-10-24T09:00:55;98869.13;;;23.88;47.56
26823;BME280;14852;51.910;8.878;2022-10-24T09:03:37;98865.84;;;24.71;45.68
26823;BME280;14852;51.910;8.878;2022-10-24T09:06:16;98875.94;;;25.04;44.87
26823;BME280;14852;51.910;8.878;2022-10-24T09:08:53;98866.03;;;25.60;43.99
26823;BME280;14852;51.910;8.878;2022-10-24T09:14:27;98859.16;;;26.40;42.91
26823;BME280;14852;51.910;8.878;2022-10-24T09:17:24;98861.72;;;27.52;41.97
26823;BME280;14852;51.910;8.878;2022-10-24T09:19:58;98866.53;;;27.88;40.90
26823;BME280;14852;51.910;8.878;2022-10-24T09:22:29;98875.78;;;26.94;42.55
26823;BME280;14852;51.910;8.878;2022-10-24T09:25:06;98874.56;;;25.96;44.47
26823;BME280;14852;51.910;8.878;2022-10-24T09:27:36;98882.97;;;25.18;44.93
26823;BME280;14852;51.910;8.878;2022-10-24T09:30:06;98887.91;;;24.44;45.85
26823;BME280;14852;51.910;8.878;2022-10-24T09:32:36;98884.81;;;23.90;45.85
26823;BME280;14852;51.910;8.878;2022-10-24T09:35:14;98887.59;;;23.67;46.60
26823;BME280;14852;51.910;8.878;2022-10-24T09:37:50;98886.41;;;23.40;47.21
26823;BME280;14852;51.910;8.878;2022-10-24T09:40:23;98898.94;;;23.17;47.39
26823;BME280;14852;51.910;8.878;2022-10-24T09:43:14;98890.78;;;23.03;47.67
26823;BME280;14852;51.910;8.878;2022-10-24T09:48:29;98889.84;;;22.96;47.48
26823;BME280;14852;51.910;8.878;2022-10-24T09:50:58;98910.38;;;22.80;47.41
26823;BME280;14852;51.910;8.878;2022-10-24T09:53:31;98900.81;;;22.70;47.90
26823;BME280;14852;51.910;8.878;2022-10-24T09:56:01;98918.41;;;22.63;47.80
26823;BME280;14852;51.910;8.878;2022-10-24T09:58:32;98917.47;;;22.56;47.96
26823;BME280;14852;51.910;8.878;2022-10-24T10:01:03;98924.25;;;22.59;47.42
26823;BME280;14852;51.910;8.878;2022-10-24T10:03:30;98922.47;;;22.51;47.59
26823;BME280;14852;51.910;8.878;2022-10-24T10:06:00;98908.28;;;22.44;47.46
26823;BME280;14852;51.910;8.878;2022-10-24T10:08:33;98916.47;;;22.34;47.27
26823;BME280;14852;51.910;8.878;2022-10-24T10:11:11;98922.28;;;22.30;47.82
26823;BME280;14852;51.910;8.878;2022-10-24T10:13:48;98919.63;;;22.30;47.61
26823;BME280;14852;51.910;8.878;2022-10-24T10:16:28;98916.63;;;22.33;47.20
26823;BME280;14852;51.910;8.878;2022-10-24T10:19:17;98934.00;;;22.35;47.43
26823;BME280;14852;51.910;8.878;2022-10-24T10:21:59;98933.00;;;22.36;47.33
26823;BME280;14852;51.910;8.878;2022-10-24T10:27:37;98934.22;;;22.26;46.99
26823;BME280;14852;51.910;8.878;2022-10-24T10:33:19;98939.28;;;22.04;47.00
26823;BME280;14852;51.910;8.878;2022-10-24T10:38:47;98926.72;;;22.07;46.98
26823;BME280;14852;51.910;8.878;2022-10-24T10:50:46;98936.66;;;22.35;47.23
26823;BME280;14852;51.910;8.878;2022-10-24T10:54:15;98939.75;;;22.39;46.98
26823;BME280;14852;51.910;8.878;2022-10-24T10:57:02;98946.53;;;22.42;46.70
26823;BME280;14852;51.910;8.878;2022-10-24T10:59:50;98942.78;;;22.36;46.97
26823;BME280;14852;51.910;8.878;2022-10-24T11:03:08;98951.88;;;22.33;46.97
26823;BME280;14852;51.910;8.878;2022-10-24T11:08:49;98957.72;;;22.21;47.17
26823;BME280;14852;51.910;8.878;2022-10-24T11:11:27;98965.72;;;22.13;47.22
26823;BME280;14852;51.910;8.878;2022-10-24T11:14:34;98966.75;;;22.03;47.56
26823;BME280;14852;51.910;8.878;2022-10-24T11:17:12;98966.91;;;21.94;47.32
26823;BME280;14852;51.910;8.878;2022-10-24T11:22:44;98979.34;;;21.85;47.66
26823;BME280;14852;51.910;8.878;2022-10-24T11:25:33;98978.03;;;21.81;48.02
26823;BME280;14852;51.910;8.878;2022-10-24T11:31:10;98973.75;;;21.80;48.06
26823;BME280;14852;51.910;8.878;2022-10-24T11:37:02;98973.22;;;21.85;47.37
26823;BME280;14852;51.910;8.878;2022-10-24T11:39:53;98978.22;;;21.80;47.50
26823;BME280;14852;51.910;8.878;2022-10-24T11:45:19;98981.22;;;21.77;47.53
26823;BME280;14852;51.910;8.878;2022-10-24T11:56:02;98989.06;;;21.46;48.77
26823;BME280;14852;51.910;8.878;2022-10-24T11:58:31;98998.78;;;21.37;48.93
26823;BME280;14852;51.910;8.878;2022-10-24T12:04:10;99000.81;;;21.19;49.42
26823;BME280;14852;51.910;8.878;2022-10-24T12:12:39;98999.13;;;21.18;49.53
26823;BME280;14852;51.910;8.878;2022-10-24T12:18:29;98993.34;;;21.06;49.33
26823;BME280;14852;51.910;8.878;2022-10-24T12:21:04;98999.13;;;21.02;49.70
26823;BME280;14852;51.910;8.878;2022-10-24T12:23:31;98999.47;;;20.99;49.58
26823;BME280;14852;51.910;8.878;2022-10-24T12:28:40;98997.97;;;21.04;49.93
26823;BME280;14852;51.910;8.878;2022-10-24T12:33:42;98996.34;;;21.11;49.58
26823;BME280;14852;51.910;8.878;2022-10-24T12:36:09;99001.63;;;21.11;49.73
26823;BME280;14852;51.910;8.878;2022-10-24T12:41:22;98998.94;;;21.03;49.74
26823;BME280;14852;51.910;8.878;2022-10-24T12:43:50;99001.44;;;21.05;50.03
26823;BME280;14852;51.910;8.878;2022-10-24T12:51:37;99002.94;;;21.07;49.62
26823;BME280;14852;51.910;8.878;2022-10-24T12:59:30;98997.84;;;21.22;49.47
26823;BME280;14852;51.910;8.878;2022-10-24T13:21:36;99002.31;;;21.21;49.58
26823;BME280;14852;51.910;8.878;2022-10-24T13:30:00;99001.28;;;21.30;49.73
26823;BME280;14852;51.910;8.878;2022-10-24T13:40:30;98993.03;;;21.34;49.62
26823;BME280;14852;51.910;8.878;2022-10-24T13:43:03;98998.81;;;21.29;49.65
26823;BME280;14852;51.910;8.878;2022-10-24T13:48:24;99001.28;;;21.30;49.59
26823;BME280;14852;51.910;8.878;2022-10-24T13:51:12;99001.81;;;21.34;49.72
26823;BME280;14852;51.910;8.878;2022-10-24T13:53:52;98995.50;;;21.35;49.54
26823;BME280;14852;51.910;8.878;2022-10-24T13:56:19;98994.03;;;21.33;49.50
26823;BME280;14852;51.910;8.878;2022-10-24T13:58:45;98994.19;;;21.31;49.50
26823;BME280;14852;51.910;8.878;2022-10-24T14:01:23;98994.84;;;21.33;49.56
26823;BME280;14852;51.910;8.878;2022-10-24T14:03:52;98999.66;;;21.21;49.78
26823;BME280;14852;51.910;8.878;2022-10-24T14:06:34;98991.72;;;21.21;49.62
26823;BME280;14852;51.910;8.878;2022-10-24T14:09:03;99003.75;;;21.16;49.46
26823;BME280;14852;51.910;8.878;2022-10-24T14:11:45;98993.19;;;21.16;49.51
26823;BME280;14852;51.910;8.878;2022-10-24T14:14:38;98990.38;;;21.17;49.73
26823;BME280;14852;51.910;8.878;2022-10-24T14:17:33;99006.91;;;21.19;49.83
26823;BME280;14852;51.910;8.878;2022-10-24T14:22:52;99016.97;;;21.00;50.23
26823;BME280;14852;51.910;8.878;2022-10-24T14:25:36;99024.03;;;20.83;50.71
26823;BME280;14852;51.910;8.878;2022-10-24T14:28:15;99035.06;;;20.62;51.39
26823;BME280;14852;51.910;8.878;2022-10-24T14:30:56;99042.09;;;20.45;51.59
26823;BME280;14852;51.910;8.878;2022-10-24T14:33:28;99031.47;;;20.29;52.09
26823;BME280;14852;51.910;8.878;2022-10-24T14:35:59;99039.97;;;20.15;52.30
26823;BME280;14852;51.910;8.878;2022-10-24T14:38:27;99041.59;;;20.08;52.94
26823;BME280;14852;51.910;8.878;2022-10-24T14:40:53;99051.78;;;20.03;53.30
26823;BME280;14852;51.910;8.878;2022-10-24T14:43:26;99046.16;;;19.98;53.33
26823;BME280;14852;51.910;8.878;2022-10-24T14:48:37;99049.72;;;19.88;52.69
26823;BME280;14852;51.910;8.878;2022-10-24T14:51:26;99052.34;;;19.80;52.79
26823;BME280;14852;51.910;8.878;2022-10-24T14:53:54;99057.38;;;19.74;53.00
26823;BME280;14852;51.910;8.878;2022-10-24T14:56:29;99052.94;;;19.74;52.86
26823;BME280;14852;51.910;8.878;2022-10-24T14:58:59;99045.00;;;19.66;53.32
26823;BME280;14852;51.910;8.878;2022-10-24T15:01:25;99054.03;;;19.64;53.68
26823;BME280;14852;51.910;8.878;2022-10-24T15:03:56;99060.94;;;19.65;53.66
26823;BME280;14852;51.910;8.878;2022-10-24T15:06:46;99054.72;;;19.66;53.83
26823;BME280;14852;51.910;8.878;2022-10-24T15:11:46;99043.97;;;19.59;53.38
26823;BME280;14852;51.910;8.878;2022-10-24T15:14:50;99047.09;;;19.63;53.40
26823;BME280;14852;51.910;8.878;2022-10-24T15:17:30;99049.25;;;19.59;53.60
26823;BME280;14852;51.910;8.878;2022-10-24T15:20:02;99053.69;;;19.59;53.79
26823;BME280;14852;51.910;8.878;2022-10-24T15:25:00;99045.69;;;19.50;53.77
26823;BME280;14852;51.910;8.878;2022-10-24T15:27:37;99042.53;;;19.47;53.82
26823;BME280;14852;51.910;8.878;2022-10-24T15:30:12;99047.13;;;19.45;54.09
26823;BME280;14852;51.910;8.878;2022-10-24T15:32:38;99052.69;;;19.42;53.81
26823;BME280;14852;51.910;8.878;2022-10-24T15:35:04;99056.31;;;19.41;54.19
26823;BME280;14852;51.910;8.878;2022-10-24T15:37:30;99066.16;;;19.39;53.84
26823;BME280;14852;51.910;8.878;2022-10-24T15:40:03;99065.50;;;19.37;54.07
26823;BME280;14852;51.910;8.878;2022-10-24T15:42:29;99065.34;;;19.38;53.40
26823;BME280;14852;51.910;8.878;2022-10-24T15:44:54;99068.59;;;19.32;53.99